Terminal Aerodrome Forecast
Issued by NWS Medford, OR

Home | Current Version | Previous Version | Text Only | Print | Product List | Glossary On
Versions: 1 2 3 4 5 6 7 8 9 10 11 12 13 14 15 16 17 18 19 20 21
824
FTUS46 KMFR 242339
TAFMFR
TAF
KMFR 242339Z 2500/2524 05007KT P6SM -SHRA OVC035
     FM250400 VRB03KT P6SM VCSH SCT035 OVC060=

USA.gov is the U.S. government's official web portal to all federal, state and local government web resources and services.